Alges — CSPH — position and weather

sailwx.info

Track history (hours):
 
Tides and Currents Weather Stations Pressure Air Temp Water Temp Dewpoint Dewpoint Depression Visibility Wind Speed Wind Dir Waves Ship Positions

Alges

Last reported at 2014-Aug-22 10:16 UTC. Time now 2014-Aug-22 13:47 UTC.
Position N 38°41' W 009°09'.

Length 45 m; draft 24.8 m.

Type: Passenger vessel. MMSI: 263700008.

Date/timePositionNaut miles runAvg speedWind from/ knotsBaromVisibWave heightAir tempDewpointWater temp
2014-Aug-22 10:16N 38°41' W 009°09'0 0.2
2014-Aug-22 09:33N 38°41' W 009°09'1 1.2
2014-Aug-22 08:34N 38°42' W 009°09'1 0.6
2014-Aug-22 07:34N 38°42' W 009°08'0 0.4
2014-Aug-22 06:34N 38°42' W 009°07'0 0.1
2014-Aug-22 05:34N 38°42' W 009°07'5 5.5
2014-Aug-22 04:34N 38°42' W 009°00'0 0.0
2014-Aug-21 22:34N 38°42' W 009°01'0 0.3
2014-Aug-21 21:34N 38°42' W 009°01'0 0.3
2014-Aug-21 20:33N 38°42' W 009°01'0 0.2
2014-Aug-21 19:33N 38°42' W 009°00'1 0.8
2014-Aug-21 18:34N 38°41' W 009°01'0 0.0
2014-Aug-21 17:33N 38°41' W 009°01'0 0.2
2014-Aug-21 16:34N 38°42' W 009°01'0 0.1
2014-Aug-21 15:34N 38°42' W 009°01'3 0.6
2014-Aug-21 10:33N 38°41' W 009°05'3 3.3
2014-Aug-21 09:33N 38°41' W 009°09'6 6.5
2014-Aug-21 08:33N 38°42' W 009°01'0 0.2
2014-Aug-21 07:34N 38°42' W 009°01'0 0.1
2014-Aug-21 06:34N 38°42' W 009°01'0 0.0
2014-Aug-20 19:04N 38°42' W 009°00'611.3
2014-Aug-20 18:33N 38°42' W 009°08'0 0.1
2014-Aug-20 17:34N 38°42' W 009°08'0 0.1
2014-Aug-20 16:33N 38°42' W 009°08'1 0.6
2014-Aug-20 15:33N 38°42' W 009°07'0 0.1
2014-Aug-20 14:33N 38°42' W 009°07'5 5.4
2014-Aug-20 13:34N 38°42' W 009°00'1 0.6
2014-Aug-20 12:34N 38°42' W 009°01'5 5.2
2014-Aug-20 11:33N 38°42' W 009°08'6 5.6
2014-Aug-20 10:33N 38°42' W 009°00'0 0.4
2014-Aug-20 09:34N 38°42' W 009°01'0 0.1
2014-Aug-20 08:34N 38°42' W 009°01'0 0.3
2014-Aug-20 07:33N 38°42' W 009°01'0 0.1
2014-Aug-20 06:33N 38°42' W 009°01'0 0.3
2014-Aug-20 05:33N 38°42' W 009°00'0 0.0
2014-Aug-19 19:03N 38°42' W 009°00'611.9
2014-Aug-19 18:33N 38°42' W 009°08'0 0.0
2014-Aug-19 17:33N 38°42' W 009°08'0 0.2
2014-Aug-19 16:33N 38°42' W 009°08'2 0.1
2014-Aug-18 14:33N 38°41' W 009°09'  
Track history (hours):
 
Tides and Currents Weather Stations Pressure Air Temp Water Temp Dewpoint Dewpoint Depression Visibility Wind Speed Wind Dir Waves Ship Positions

Alges

Last reported at 2014-Aug-22 10:16 UTC. Time now 2014-Aug-22 13:47 UTC.
Position N 38°41' W 009°09'.

Length 45 m; draft 24.8 m.

Type: Passenger vessel. MMSI: 263700008.

Date/timePositionNaut miles runAvg speedWind from/ knotsBaromVisibWave heightAir tempDewpointWater temp
2014-Aug-22 10:16N 38°41' W 009°09'0 0.2
2014-Aug-22 09:33N 38°41' W 009°09'1 1.2
2014-Aug-22 08:34N 38°42' W 009°09'1 0.6
2014-Aug-22 07:34N 38°42' W 009°08'0 0.4
2014-Aug-22 06:34N 38°42' W 009°07'0 0.1
2014-Aug-22 05:34N 38°42' W 009°07'5 5.5
2014-Aug-22 04:34N 38°42' W 009°00'0 0.0
2014-Aug-21 22:34N 38°42' W 009°01'0 0.3
2014-Aug-21 21:34N 38°42' W 009°01'0 0.3
2014-Aug-21 20:33N 38°42' W 009°01'0 0.2
2014-Aug-21 19:33N 38°42' W 009°00'1 0.8
2014-Aug-21 18:34N 38°41' W 009°01'0 0.0
2014-Aug-21 17:33N 38°41' W 009°01'0 0.2
2014-Aug-21 16:34N 38°42' W 009°01'0 0.1
2014-Aug-21 15:34N 38°42' W 009°01'3 0.6
2014-Aug-21 10:33N 38°41' W 009°05'3 3.3
2014-Aug-21 09:33N 38°41' W 009°09'6 6.5
2014-Aug-21 08:33N 38°42' W 009°01'0 0.2
2014-Aug-21 07:34N 38°42' W 009°01'0 0.1
2014-Aug-21 06:34N 38°42' W 009°01'0 0.0
2014-Aug-20 19:04N 38°42' W 009°00'611.3
2014-Aug-20 18:33N 38°42' W 009°08'0 0.1
2014-Aug-20 17:34N 38°42' W 009°08'0 0.1
2014-Aug-20 16:33N 38°42' W 009°08'1 0.6
2014-Aug-20 15:33N 38°42' W 009°07'0 0.1
2014-Aug-20 14:33N 38°42' W 009°07'5 5.4
2014-Aug-20 13:34N 38°42' W 009°00'1 0.6
2014-Aug-20 12:34N 38°42' W 009°01'5 5.2
2014-Aug-20 11:33N 38°42' W 009°08'6 5.6
2014-Aug-20 10:33N 38°42' W 009°00'0 0.4
2014-Aug-20 09:34N 38°42' W 009°01'0 0.1
2014-Aug-20 08:34N 38°42' W 009°01'0 0.3
2014-Aug-20 07:33N 38°42' W 009°01'0 0.1
2014-Aug-20 06:33N 38°42' W 009°01'0 0.3
2014-Aug-20 05:33N 38°42' W 009°00'0 0.0
2014-Aug-19 19:03N 38°42' W 009°00'611.9
2014-Aug-19 18:33N 38°42' W 009°08'0 0.0
2014-Aug-19 17:33N 38°42' W 009°08'0 0.2
2014-Aug-19 16:33N 38°42' W 009°08'2 0.1
2014-Aug-18 14:33N 38°41' W 009°09'  

Dump ship's entire track history